createdAt,value
2019-02-20T00:00:42.983Z,73.00
2019-02-20T00:02:46.640Z,74.20
2019-02-20T00:04:50.339Z,74.10
2019-02-20T00:06:54.081Z,73.80
2019-02-20T00:08:59.299Z,73.20
2019-02-20T00:11:02.990Z,72.90
2019-02-20T00:13:06.775Z,72.60
2019-02-20T00:15:10.549Z,71.90
2019-02-20T00:17:14.216Z,71.60
2019-02-20T00:19:17.987Z,71.40
2019-02-20T00:21:21.647Z,71.50
2019-02-20T00:23:25.308Z,71.10
2019-02-20T00:25:28.984Z,71.00
2019-02-20T00:27:32.651Z,71.10
2019-02-20T00:29:36.336Z,71.20
2019-02-20T00:31:40.067Z,71.20
2019-02-20T00:33:43.722Z,71.50
2019-02-20T00:35:47.417Z,71.50
2019-02-20T00:37:51.230Z,71.70
2019-02-20T00:39:54.911Z,71.80
2019-02-20T00:41:58.608Z,72.10
2019-02-20T00:44:03.844Z,72.50
2019-02-20T00:46:09.111Z,72.50
2019-02-20T00:48:14.359Z,72.30
2019-02-20T00:50:19.088Z,72.60
2019-02-20T00:52:35.820Z,72.50
2019-02-20T00:54:39.483Z,71.80
2019-02-20T00:56:43.171Z,72.10
2019-02-20T00:58:46.835Z,72.60
2019-02-20T01:00:50.600Z,72.70
2019-02-20T01:02:54.284Z,72.90
2019-02-20T01:04:57.938Z,73.20
2019-02-20T01:07:01.660Z,72.70
2019-02-20T01:09:06.426Z,72.30
2019-02-20T01:11:10.140Z,72.10
2019-02-20T01:13:13.827Z,72.10
2019-02-20T01:15:17.534Z,71.90
2019-02-20T01:17:21.232Z,71.80
2019-02-20T01:19:24.892Z,71.90
2019-02-20T01:21:28.749Z,71.70
2019-02-20T01:23:32.472Z,71.00
2019-02-20T01:25:36.144Z,71.70
2019-02-20T01:27:39.818Z,71.50
2019-02-20T01:29:43.500Z,71.40
2019-02-20T01:31:47.199Z,71.20
2019-02-20T01:33:51.072Z,70.70
2019-02-20T01:35:54.733Z,70.70
2019-02-20T01:37:58.426Z,71.20
2019-02-20T01:40:02.138Z,71.20
2019-02-20T01:42:05.823Z,72.10
2019-02-20T01:44:09.476Z,72.10
2019-02-20T01:46:13.233Z,71.80
2019-02-20T01:48:16.939Z,72.90
2019-02-20T01:50:20.682Z,72.50
2019-02-20T01:52:24.342Z,72.60
2019-02-20T01:54:28.040Z,72.80
2019-02-20T01:56:31.694Z,72.70
2019-02-20T01:58:35.479Z,72.30
2019-02-20T02:00:39.156Z,71.70
2019-02-20T02:02:42.864Z,70.90
2019-02-20T02:04:46.519Z,71.70
2019-02-20T02:06:50.174Z,71.90
2019-02-20T02:08:53.921Z,72.00
2019-02-20T02:10:57.737Z,72.20
2019-02-20T02:13:01.468Z,74.00
2019-02-20T02:15:06.693Z,72.80
2019-02-20T02:17:10.505Z,72.90
2019-02-20T02:19:14.205Z,72.80
2019-02-20T02:21:17.867Z,72.80
2019-02-20T02:23:21.562Z,72.50
2019-02-20T02:25:25.252Z,72.80
2019-02-20T02:27:28.906Z,71.90
2019-02-20T02:29:32.604Z,72.10
2019-02-20T02:31:36.275Z,72.90
2019-02-20T02:33:39.968Z,73.20
2019-02-20T02:35:43.644Z,73.90
2019-02-20T02:37:47.403Z,73.10
2019-02-20T02:39:51.119Z,72.20
2019-02-20T02:41:54.791Z,73.20
2019-02-20T02:43:58.542Z,72.90
2019-02-20T02:46:02.242Z,72.40
2019-02-20T02:48:05.987Z,72.20
2019-02-20T02:50:09.742Z,72.30
2019-02-20T02:52:13.409Z,72.40
2019-02-20T02:54:17.110Z,72.50
2019-02-20T02:56:20.785Z,72.50
2019-02-20T02:58:24.496Z,73.00
2019-02-20T03:00:28.195Z,73.40
2019-02-20T03:02:31.859Z,73.40
2019-02-20T03:04:35.528Z,72.90
2019-02-20T03:06:39.226Z,72.70
2019-02-20T03:08:42.944Z,72.30
2019-02-20T03:10:46.732Z,72.70
2019-02-20T03:12:50.415Z,73.30
2019-02-20T03:14:54.109Z,73.00
2019-02-20T03:16:58.070Z,72.70
2019-02-20T03:19:01.752Z,72.50
2019-02-20T03:21:05.452Z,73.00
2019-02-20T03:23:09.111Z,74.30
2019-02-20T03:25:12.890Z,75.60
2019-02-20T03:27:16.571Z,74.90
2019-02-20T03:29:20.243Z,74.70
2019-02-20T03:31:23.937Z,74.00
2019-02-20T03:33:27.611Z,73.30
2019-02-20T03:35:31.316Z,73.20
2019-02-20T03:37:35.005Z,73.00
2019-02-20T03:39:38.663Z,73.40
2019-02-20T03:41:42.439Z,73.10
2019-02-20T03:43:46.110Z,73.20
2019-02-20T03:45:49.828Z,74.00
2019-02-20T03:47:53.493Z,73.40
2019-02-20T03:49:57.152Z,72.90
2019-02-20T03:52:00.890Z,72.90
2019-02-20T03:54:04.561Z,72.80
2019-02-20T03:56:08.252Z,73.00
2019-02-20T03:58:12.011Z,72.90
2019-02-20T04:00:15.768Z,73.20
2019-02-20T04:02:19.437Z,73.40
2019-02-20T04:04:23.106Z,73.00
2019-02-20T04:06:26.821Z,72.90
2019-02-20T04:08:30.495Z,73.40
2019-02-20T04:10:34.157Z,73.60
2019-02-20T04:12:37.965Z,74.00
2019-02-20T04:14:41.667Z,74.20
2019-02-20T04:16:45.356Z,74.10
2019-02-20T04:18:49.024Z,73.90
2019-02-20T04:20:52.697Z,73.30
2019-02-20T04:22:56.379Z,72.70
2019-02-20T04:25:00.034Z,73.30
2019-02-20T04:27:03.758Z,73.60
2019-02-20T04:29:07.502Z,73.50
2019-02-20T04:31:11.169Z,73.80
2019-02-20T04:33:15.052Z,74.30
2019-02-20T04:35:18.770Z,73.80
2019-02-20T04:37:22.467Z,73.40
2019-02-20T04:39:26.193Z,73.20
2019-02-20T04:41:29.848Z,73.20
2019-02-20T04:43:33.626Z,76.20
2019-02-20T04:45:37.304Z,75.70
2019-02-20T04:47:41.018Z,74.40
2019-02-20T04:49:44.739Z,73.70
2019-02-20T04:51:48.421Z,73.30
2019-02-20T04:53:52.125Z,72.80
2019-02-20T04:55:55.784Z,74.40
2019-02-20T04:58:16.275Z,73.90
2019-02-20T05:00:19.945Z,73.40
2019-02-20T05:02:23.606Z,73.20
2019-02-20T05:04:27.296Z,73.80
2019-02-20T05:06:30.966Z,73.50
2019-02-20T05:08:34.668Z,73.40
2019-02-20T05:10:38.344Z,73.00
2019-02-20T05:12:42.104Z,72.80
2019-02-20T05:14:45.785Z,73.00
2019-02-20T05:16:49.461Z,73.50
2019-02-20T05:18:53.148Z,72.30
2019-02-20T05:20:56.819Z,72.60
2019-02-20T05:23:00.479Z,73.30
2019-02-20T05:25:04.808Z,73.50
2019-02-20T05:27:08.623Z,73.10
2019-02-20T05:29:12.450Z,72.60
2019-02-20T05:31:16.640Z,72.80
2019-02-20T05:33:20.646Z,73.20
2019-02-20T05:35:24.331Z,73.10
2019-02-20T05:37:28.014Z,72.80
2019-02-20T05:39:31.812Z,72.70
2019-02-20T05:41:35.480Z,72.20
2019-02-20T05:43:39.147Z,71.80
2019-02-20T05:45:42.839Z,72.20
2019-02-20T05:47:46.512Z,72.90
2019-02-20T05:49:50.215Z,72.70
2019-02-20T05:51:53.906Z,72.70
2019-02-20T05:53:57.592Z,72.40
2019-02-20T05:56:01.274Z,71.30
2019-02-20T05:58:04.946Z,71.90
2019-02-20T06:00:11.722Z,71.80
2019-02-20T06:02:15.507Z,72.00
2019-02-20T06:04:19.176Z,72.00
2019-02-20T06:06:22.947Z,72.20
2019-02-20T06:08:26.616Z,72.70
2019-02-20T06:10:30.304Z,72.00
2019-02-20T06:12:33.969Z,71.20
2019-02-20T06:14:37.656Z,71.50
2019-02-20T06:16:41.335Z,71.80
2019-02-20T06:18:45.103Z,71.00
2019-02-20T06:20:48.872Z,71.10
2019-02-20T06:25:27.795Z,71.50
2019-02-20T06:27:31.514Z,72.30
2019-02-20T06:29:35.178Z,72.30
2019-02-20T06:31:38.883Z,71.80
2019-02-20T06:33:42.556Z,71.50
2019-02-20T06:35:46.329Z,72.40
2019-02-20T06:37:50.039Z,73.60
2019-02-20T06:39:53.694Z,73.40
2019-02-20T06:41:57.505Z,73.30
2019-02-20T06:44:01.162Z,72.80
2019-02-20T06:46:04.858Z,72.30
2019-02-20T06:48:08.599Z,71.60
2019-02-20T06:50:12.274Z,71.80
2019-02-20T06:52:15.998Z,71.70
2019-02-20T06:54:19.651Z,72.10
2019-02-20T06:56:23.373Z,72.40
2019-02-20T06:58:27.045Z,72.50
2019-02-20T07:00:30.830Z,72.40
2019-02-20T07:02:35.770Z,72.40
2019-02-20T07:04:39.566Z,72.10
2019-02-20T07:06:52.182Z,72.40
2019-02-20T07:09:15.228Z,72.60
2019-02-20T07:11:44.648Z,72.70
2019-02-20T07:14:07.671Z,72.90
2019-02-20T07:16:46.875Z,73.20
2019-02-20T07:19:10.540Z,73.50
2019-02-20T07:21:41.987Z,74.50
2019-02-20T07:23:54.127Z,75.40
2019-02-20T07:26:17.418Z,75.40
2019-02-20T07:28:35.182Z,74.40
2019-02-20T07:30:38.852Z,73.60
2019-02-20T07:32:42.640Z,73.50
2019-02-20T07:34:46.312Z,74.50
2019-02-20T07:36:49.980Z,74.40
2019-02-20T07:38:53.736Z,73.80
2019-02-20T07:40:57.403Z,73.30
2019-02-20T07:43:01.131Z,73.20
2019-02-20T07:45:06.936Z,73.20
2019-02-20T07:47:10.600Z,74.90
2019-02-20T07:49:14.295Z,75.20
2019-02-20T07:51:17.976Z,75.50
2019-02-20T07:53:21.668Z,75.10
2019-02-20T07:55:25.345Z,75.20
2019-02-20T07:57:29.011Z,75.60
2019-02-20T07:59:32.704Z,74.80
2019-02-20T08:01:36.367Z,75.30
2019-02-20T08:03:40.083Z,75.30
2019-02-20T08:05:43.928Z,74.70
2019-02-20T08:07:47.655Z,74.60
2019-02-20T08:09:51.369Z,74.30
2019-02-20T08:11:55.041Z,74.40
2019-02-20T08:13:58.708Z,73.80
2019-02-20T08:16:02.414Z,73.60
2019-02-20T08:18:06.085Z,74.10
2019-02-20T08:20:10.682Z,74.40
2019-02-20T08:22:14.351Z,74.30
2019-02-20T08:24:18.238Z,74.20
2019-02-20T08:26:21.967Z,74.30
2019-02-20T08:28:25.621Z,74.20
2019-02-20T08:30:29.312Z,74.50
2019-02-20T08:32:32.983Z,74.10
2019-02-20T08:34:36.660Z,74.10
2019-02-20T08:36:40.391Z,74.10
2019-02-20T08:38:44.176Z,74.10
2019-02-20T08:40:47.898Z,74.60
2019-02-20T08:42:51.558Z,75.40
2019-02-20T08:44:55.230Z,77.00
2019-02-20T08:46:58.930Z,76.10
2019-02-20T08:49:02.598Z,75.70
2019-02-20T08:51:06.304Z,75.40
2019-02-20T08:53:09.970Z,75.40
2019-02-20T08:55:13.649Z,75.10
2019-02-20T08:57:17.445Z,75.30
2019-02-20T08:59:21.128Z,75.50
2019-02-20T09:01:24.829Z,75.00
2019-02-20T09:03:28.482Z,74.80
2019-02-20T09:05:34.188Z,74.70
2019-02-20T09:07:37.690Z,74.40
2019-02-20T09:09:41.355Z,74.80
2019-02-20T09:11:45.672Z,75.30
2019-02-20T09:13:49.398Z,79.30
2019-02-20T09:15:53.228Z,78.70
2019-02-20T09:17:56.910Z,78.10
2019-02-20T09:20:00.592Z,77.80
2019-02-20T09:22:04.388Z,77.70
2019-02-20T09:24:08.173Z,77.70
2019-02-20T09:26:11.831Z,79.20
2019-02-20T09:28:15.523Z,79.10
2019-02-20T09:30:28.080Z,79.10
2019-02-20T09:32:24.635Z,79.00
2019-02-20T09:34:28.367Z,79.20
2019-02-20T09:36:32.061Z,79.10
2019-02-20T09:38:35.755Z,79.30
2019-02-20T09:40:39.415Z,79.10
2019-02-20T09:42:44.404Z,78.50
2019-02-20T09:44:48.130Z,78.50
2019-02-20T09:46:51.804Z,78.70
2019-02-20T09:48:55.503Z,78.80
2019-02-20T09:50:59.200Z,77.20
2019-02-20T09:53:02.955Z,77.70
2019-02-20T09:55:11.903Z,77.40
2019-02-20T09:57:15.576Z,77.30
2019-02-20T09:59:19.266Z,77.60
2019-02-20T10:01:22.952Z,78.10
2019-02-20T10:03:26.711Z,78.10
2019-02-20T10:05:30.463Z,78.20
2019-02-20T10:07:34.161Z,77.70
2019-02-20T10:09:37.967Z,80.00
2019-02-20T10:11:41.749Z,81.00
2019-02-20T10:13:45.435Z,80.10
2019-02-20T10:15:49.111Z,79.90
2019-02-20T10:17:52.849Z,79.40
2019-02-20T10:19:56.568Z,79.00
2019-02-20T10:22:00.290Z,78.90
2019-02-20T10:24:04.323Z,80.60
2019-02-20T10:26:07.980Z,84.30
2019-02-20T10:28:11.693Z,82.40
2019-02-20T10:30:19.770Z,80.90
2019-02-20T10:32:23.451Z,80.00
2019-02-20T10:34:27.269Z,78.60
2019-02-20T10:36:30.936Z,79.30
2019-02-20T10:38:34.681Z,81.50
2019-02-20T10:40:38.399Z,79.20
2019-02-20T10:42:42.087Z,79.90
2019-02-20T10:44:45.884Z,76.50
2019-02-20T10:46:49.557Z,74.90
2019-02-20T10:48:53.230Z,75.10
2019-02-20T10:50:56.927Z,74.20
2019-02-20T10:53:00.612Z,73.50
2019-02-20T10:55:05.923Z,73.90
2019-02-20T10:57:09.643Z,72.10
2019-02-20T10:59:13.388Z,72.70
2019-02-20T11:01:17.060Z,73.50
2019-02-20T11:03:20.724Z,73.50
2019-02-20T11:05:24.476Z,73.50
2019-02-20T11:07:28.148Z,72.80
2019-02-20T11:09:31.951Z,71.60
2019-02-20T11:11:35.819Z,71.90
2019-02-20T11:13:39.474Z,71.60
2019-02-20T11:15:43.167Z,71.50
2019-02-20T11:17:46.842Z,70.80
2019-02-20T11:19:50.539Z,70.70
2019-02-20T11:21:54.222Z,70.80
2019-02-20T11:23:57.922Z,70.40
2019-02-20T11:26:01.630Z,71.40
2019-02-20T11:28:05.387Z,70.90
2019-02-20T11:30:17.368Z,71.40
2019-02-20T11:32:21.031Z,69.90
2019-02-20T11:34:24.767Z,69.20
2019-02-20T11:36:28.567Z,68.40
2019-02-20T11:38:32.238Z,69.30
2019-02-20T11:40:35.933Z,70.10
2019-02-20T11:42:39.776Z,71.00
2019-02-20T11:44:43.448Z,72.20
2019-02-20T11:46:47.248Z,71.90
2019-02-20T11:48:50.920Z,71.00
2019-02-20T11:50:54.570Z,71.20
2019-02-20T11:52:58.272Z,70.90
2019-02-20T11:55:01.956Z,70.90
2019-02-20T11:57:05.645Z,71.10
2019-02-20T11:59:09.303Z,70.10
2019-02-20T12:01:13.032Z,71.40
2019-02-20T12:03:16.775Z,70.60
2019-02-20T12:05:20.439Z,69.90
2019-02-20T12:07:24.119Z,69.40
2019-02-20T12:09:27.778Z,68.60
2019-02-20T12:11:31.464Z,68.40
2019-02-20T12:13:35.156Z,68.00
2019-02-20T12:15:38.823Z,69.40
2019-02-20T12:17:42.548Z,68.00
2019-02-20T12:19:46.325Z,67.20
2019-02-20T12:21:50.023Z,68.40
2019-02-20T12:23:53.718Z,69.40
2019-02-20T12:25:57.383Z,69.10
2019-02-20T12:28:01.072Z,68.40
2019-02-20T12:30:07.310Z,69.10
2019-02-20T12:32:10.984Z,68.50
2019-02-20T12:34:14.779Z,68.70
2019-02-20T12:36:18.564Z,68.30
2019-02-20T12:38:22.263Z,67.00
2019-02-20T12:40:25.942Z,68.60
2019-02-20T12:42:29.639Z,67.80
2019-02-20T12:44:33.509Z,67.40
2019-02-20T12:46:37.178Z,68.70
2019-02-20T12:48:40.962Z,67.20
2019-02-20T12:50:44.636Z,67.80
2019-02-20T12:52:48.342Z,67.30
2019-02-20T12:54:52.046Z,67.50
2019-02-20T12:56:55.711Z,67.90
2019-02-20T12:59:07.411Z,67.00
2019-02-20T13:01:05.135Z,67.40
2019-02-20T13:03:08.804Z,67.10
2019-02-20T13:05:12.501Z,66.90
2019-02-20T13:07:17.669Z,67.00
2019-02-20T13:09:21.855Z,66.90
2019-02-20T13:11:25.533Z,65.90
2019-02-20T13:13:29.196Z,65.70
2019-02-20T13:15:33.065Z,66.10
2019-02-20T13:17:36.747Z,65.20
2019-02-20T13:19:40.447Z,65.30
2019-02-20T13:21:44.112Z,65.40
2019-02-20T13:23:47.792Z,66.20
2019-02-20T13:25:51.494Z,66.60
2019-02-20T13:27:55.157Z,66.60
2019-02-20T13:29:58.892Z,67.60
2019-02-20T13:32:02.667Z,66.90
2019-02-20T13:34:06.336Z,67.10
2019-02-20T13:36:10.064Z,65.90
2019-02-20T13:38:13.778Z,65.20
2019-02-20T13:40:17.452Z,66.50
2019-02-20T13:42:21.226Z,66.60
2019-02-20T13:44:25.054Z,66.30
2019-02-20T13:46:29.134Z,66.60
2019-02-20T13:48:32.801Z,66.30
2019-02-20T13:50:36.559Z,66.80
2019-02-20T13:52:40.224Z,67.40
2019-02-20T13:54:43.921Z,66.50
2019-02-20T13:56:47.693Z,67.10
2019-02-20T13:58:51.363Z,66.60
2019-02-20T14:00:55.063Z,66.40
2019-02-20T14:02:58.726Z,67.20
2019-02-20T14:05:02.449Z,67.00
2019-02-20T14:07:06.147Z,67.10
2019-02-20T14:09:10.115Z,66.50
2019-02-20T14:11:13.879Z,66.90
2019-02-20T14:13:17.576Z,66.50
2019-02-20T14:15:21.627Z,66.30
2019-02-20T14:17:26.917Z,66.40
2019-02-20T14:19:30.874Z,66.70
2019-02-20T14:21:34.777Z,67.10
2019-02-20T14:23:38.443Z,67.00
2019-02-20T14:25:44.400Z,66.10
2019-02-20T14:27:48.167Z,66.20
2019-02-20T14:29:51.912Z,65.60
2019-02-20T14:31:55.612Z,65.60
2019-02-20T14:33:59.355Z,65.50
2019-02-20T14:36:03.505Z,65.60
2019-02-20T14:38:07.259Z,65.70
2019-02-20T14:40:10.922Z,66.60
2019-02-20T14:42:14.717Z,65.70
2019-02-20T14:44:18.390Z,66.80
2019-02-20T14:46:22.065Z,65.90
2019-02-20T14:48:25.852Z,66.00
2019-02-20T14:50:29.518Z,66.30
2019-02-20T14:52:33.222Z,66.00
2019-02-20T14:54:36.899Z,65.20
2019-02-20T14:56:40.557Z,64.30
2019-02-20T14:58:44.253Z,64.60
2019-02-20T15:00:48.020Z,63.90
2019-02-20T15:02:51.709Z,64.80
2019-02-20T15:04:55.747Z,64.40
2019-02-20T15:06:59.510Z,64.30
2019-02-20T15:09:04.763Z,64.00
2019-02-20T15:11:10.290Z,65.20
2019-02-20T15:13:13.806Z,65.40
2019-02-20T15:15:19.022Z,65.00
2019-02-20T15:17:22.922Z,65.20
2019-02-20T15:19:26.738Z,65.00
2019-02-20T15:21:30.409Z,66.40
2019-02-20T15:23:34.171Z,65.60
2019-02-20T15:25:38.218Z,65.50
2019-02-20T15:27:41.910Z,65.00
2019-02-20T15:29:45.673Z,64.70
2019-02-20T15:31:49.336Z,65.00
2019-02-20T15:33:53.356Z,65.50
2019-02-20T15:35:57.300Z,64.70
2019-02-20T15:38:00.972Z,64.40
2019-02-20T15:40:06.364Z,64.20
2019-02-20T15:42:10.042Z,63.50
2019-02-20T15:44:13.731Z,63.50
2019-02-20T15:46:17.436Z,63.10
2019-02-20T15:48:23.331Z,63.30
2019-02-20T15:50:26.521Z,63.20
2019-02-20T15:52:30.374Z,63.10
2019-02-20T15:54:34.055Z,62.90
2019-02-20T15:56:37.731Z,62.80
2019-02-20T15:58:41.391Z,62.90
2019-02-20T16:00:45.093Z,62.80
2019-02-20T16:02:48.847Z,63.00
2019-02-20T16:04:52.928Z,63.60
2019-02-20T16:06:56.664Z,63.20
2019-02-20T16:09:00.347Z,63.50
2019-02-20T16:11:04.159Z,63.40
2019-02-20T16:13:07.900Z,63.10
2019-02-20T16:15:11.960Z,63.40
2019-02-20T16:17:15.647Z,63.60
2019-02-20T16:19:19.387Z,63.70
2019-02-20T16:21:23.165Z,63.70
2019-02-20T16:23:26.840Z,63.40
2019-02-20T16:25:30.538Z,63.40
2019-02-20T16:27:34.211Z,63.30
2019-02-20T16:29:37.890Z,63.30
2019-02-20T16:31:41.595Z,63.10
2019-02-20T16:33:45.324Z,62.80
2019-02-20T16:35:53.376Z,63.10
2019-02-20T16:37:56.980Z,62.90
2019-02-20T16:40:00.653Z,62.60
2019-02-20T16:42:04.357Z,63.00
2019-02-20T16:44:10.010Z,62.40
2019-02-20T16:46:13.466Z,62.40
2019-02-20T16:48:17.144Z,62.60
2019-02-20T16:50:20.816Z,62.80
2019-02-20T16:52:24.502Z,63.30
2019-02-20T16:54:28.371Z,63.60
2019-02-20T16:56:32.169Z,64.20
2019-02-20T16:58:35.898Z,64.50
2019-02-20T17:00:39.928Z,64.90
2019-02-20T17:02:43.874Z,65.10
2019-02-20T17:04:47.837Z,65.20
2019-02-20T17:06:51.532Z,65.10
2019-02-20T17:08:55.224Z,65.20
2019-02-20T17:10:58.895Z,65.10
2019-02-20T17:13:02.673Z,65.20
2019-02-20T17:15:12.542Z,65.20
2019-02-20T17:17:16.238Z,65.30
2019-02-20T17:19:20.092Z,65.10
2019-02-20T17:21:23.767Z,65.30
2019-02-20T17:23:27.494Z,65.70
2019-02-20T17:25:31.469Z,65.90
2019-02-20T17:27:35.171Z,65.30
2019-02-20T17:29:38.935Z,66.10
2019-02-20T17:31:42.606Z,66.40
2019-02-20T17:33:46.333Z,66.10
2019-02-20T17:35:50.369Z,66.40
2019-02-20T17:37:54.053Z,66.20
2019-02-20T17:39:57.828Z,66.40
2019-02-20T17:42:01.566Z,66.60
2019-02-20T17:44:05.258Z,66.70
2019-02-20T17:46:09.509Z,66.60
2019-02-20T17:48:13.239Z,67.30
2019-02-20T17:50:19.309Z,67.20
2019-02-20T17:52:23.242Z,67.40
2019-02-20T17:54:26.939Z,67.50
2019-02-20T17:56:30.991Z,67.30
2019-02-20T17:58:34.664Z,67.60
2019-02-20T18:00:38.470Z,67.60
2019-02-20T18:02:42.141Z,67.50
2019-02-20T18:04:45.845Z,67.50
2019-02-20T18:06:49.499Z,67.70
2019-02-20T18:08:53.301Z,67.70
2019-02-20T18:10:57.006Z,67.70
2019-02-20T18:13:00.673Z,67.80
2019-02-20T18:15:05.808Z,67.70
2019-02-20T18:17:09.471Z,67.80
2019-02-20T18:19:13.159Z,67.80
2019-02-20T18:21:16.844Z,67.60
2019-02-20T18:23:20.630Z,68.00
2019-02-20T18:25:24.307Z,68.20
2019-02-20T18:27:27.988Z,68.10
2019-02-20T18:29:31.724Z,68.30
2019-02-20T18:31:35.430Z,68.40
2019-02-20T18:33:39.112Z,68.30
2019-02-20T18:35:42.816Z,68.30
2019-02-20T18:37:46.602Z,68.40
2019-02-20T18:39:50.266Z,68.50
2019-02-20T18:41:53.953Z,68.50
2019-02-20T18:43:57.624Z,68.50
2019-02-20T18:46:01.436Z,68.50
2019-02-20T18:48:05.114Z,68.60
2019-02-20T18:50:11.384Z,68.70
2019-02-20T18:52:15.105Z,68.80
2019-02-20T18:54:18.866Z,69.10
2019-02-20T18:56:22.608Z,69.00
2019-02-20T18:58:33.742Z,69.30
2019-02-20T19:00:31.918Z,69.50
2019-02-20T19:02:35.626Z,69.20
2019-02-20T19:04:39.310Z,69.20
2019-02-20T19:06:43.077Z,69.20
2019-02-20T19:08:49.349Z,69.20
2019-02-20T19:10:55.977Z,69.20
2019-02-20T19:13:11.808Z,69.10
2019-02-20T19:15:44.451Z,69.20
2019-02-20T19:18:09.339Z,69.30
2019-02-20T19:20:24.914Z,69.60
2019-02-20T19:22:34.351Z,69.70
2019-02-20T19:24:46.735Z,69.70
2019-02-20T19:27:13.691Z,69.70
2019-02-20T19:29:45.587Z,70.10
2019-02-20T19:32:04.498Z,71.10
2019-02-20T19:34:11.203Z,71.50
2019-02-20T19:36:35.867Z,71.40
2019-02-20T19:38:45.421Z,71.50
2019-02-20T19:40:52.034Z,71.60
2019-02-20T19:43:01.587Z,71.40
2019-02-20T19:45:22.993Z,71.30
2019-02-20T19:47:35.391Z,71.50
2019-02-20T19:49:42.087Z,72.00
2019-02-20T19:52:06.920Z,71.30
2019-02-20T19:54:16.142Z,70.90
2019-02-20T19:56:40.725Z,70.70
2019-02-20T19:59:10.107Z,70.80
2019-02-20T20:01:31.623Z,70.90
2019-02-20T20:03:59.051Z,71.00
2019-02-20T20:06:08.610Z,71.20
2019-02-20T20:08:15.280Z,71.60
2019-02-20T20:10:33.506Z,71.60
2019-02-20T20:12:59.460Z,71.60
2019-02-20T20:15:27.488Z,71.40
2019-02-20T20:17:50.398Z,71.40
2019-02-20T20:19:57.101Z,71.60
2019-02-20T20:22:37.254Z,71.50
2019-02-20T20:24:47.029Z,71.40
2019-02-20T20:26:59.034Z,71.50
2019-02-20T20:29:22.193Z,71.60
2019-02-20T20:31:43.652Z,71.50
2019-02-20T20:34:07.250Z,71.60
2019-02-20T20:36:19.402Z,71.70
2019-02-20T20:38:59.151Z,72.10
2019-02-20T20:41:17.346Z,72.30
2019-02-20T20:43:36.080Z,72.10
2019-02-20T20:45:42.753Z,71.80
2019-02-20T20:48:12.001Z,71.60
2019-02-20T20:50:16.907Z,71.40
2019-02-20T20:52:26.423Z,71.30
2019-02-20T20:54:54.917Z,71.30
2019-02-20T20:57:20.035Z,71.30
2019-02-20T20:59:26.665Z,71.20
2019-02-20T21:01:41.899Z,71.40
2019-02-20T21:03:57.058Z,71.30
2019-02-20T21:06:25.016Z,71.40
2019-02-20T21:08:34.123Z,71.40
2019-02-20T21:11:05.139Z,71.90
2019-02-20T21:13:23.429Z,71.60
2019-02-20T21:15:58.795Z,71.30
2019-02-20T21:18:24.935Z,71.10
2019-02-20T21:20:48.284Z,71.20
2019-02-20T21:23:04.041Z,71.20
2019-02-20T21:25:19.513Z,71.30
2019-02-20T21:27:47.716Z,71.10
2019-02-20T21:30:03.256Z,71.00
2019-02-20T21:32:12.697Z,70.80
2019-02-20T21:34:40.356Z,71.00
2019-02-20T21:36:59.062Z,71.00
2019-02-20T21:39:22.095Z,71.10
2019-02-20T21:41:55.581Z,70.90
2019-02-20T21:44:33.693Z,71.50
2019-02-20T21:46:55.170Z,71.80
2019-02-20T21:49:04.365Z,71.80
2019-02-20T21:51:13.477Z,71.70
2019-02-20T21:53:20.107Z,71.30
2019-02-20T21:56:00.116Z,71.30
2019-02-20T21:58:09.677Z,71.30
2019-02-20T22:00:38.965Z,71.70
2019-02-20T22:02:48.158Z,72.10
2019-02-20T22:04:59.784Z,72.20
2019-02-20T22:07:09.336Z,72.70
2019-02-20T22:09:18.772Z,72.80
2019-02-20T22:11:39.407Z,72.80
2019-02-20T22:13:57.787Z,72.70
2019-02-20T22:16:31.870Z,72.30
2019-02-20T22:18:50.232Z,72.30
2019-02-20T22:21:13.624Z,72.60
2019-02-20T22:23:25.938Z,72.60
2019-02-20T22:25:41.609Z,72.60
2019-02-20T22:27:51.034Z,72.60
2019-02-20T22:30:06.682Z,72.20
2019-02-20T22:32:16.166Z,71.80
2019-02-20T22:34:34.711Z,71.90
2019-02-20T22:36:41.318Z,71.90
2019-02-20T22:38:54.122Z,72.20
2019-02-20T22:41:06.491Z,72.20
2019-02-20T22:43:15.690Z,72.00
2019-02-20T22:45:30.598Z,72.10
2019-02-20T22:47:54.192Z,72.20
2019-02-20T22:50:09.318Z,72.40
2019-02-20T22:52:24.957Z,72.70
2019-02-20T22:54:53.791Z,72.50
2019-02-20T22:57:06.626Z,72.10
2019-02-20T22:59:45.092Z,71.90
2019-02-20T23:02:12.320Z,71.80
2019-02-20T23:04:35.015Z,75.80
2019-02-20T23:06:50.445Z,78.60
2019-02-20T23:09:09.094Z,78.20
2019-02-20T23:11:30.584Z,77.70
2019-02-20T23:13:48.823Z,76.40
2019-02-20T23:15:52.531Z,75.60
2019-02-20T23:17:56.279Z,73.90
2019-02-20T23:20:00.049Z,73.20
2019-02-20T23:22:03.735Z,72.90
2019-02-20T23:24:07.396Z,72.70
2019-02-20T23:26:11.082Z,72.70
2019-02-20T23:28:14.791Z,72.50
2019-02-20T23:30:18.456Z,72.70
2019-02-20T23:32:22.254Z,72.40
2019-02-20T23:34:25.966Z,71.90
2019-02-20T23:36:29.672Z,71.70
2019-02-20T23:38:33.538Z,71.80
2019-02-20T23:40:37.205Z,72.10
2019-02-20T23:42:40.907Z,72.90
2019-02-20T23:44:44.566Z,72.50
2019-02-20T23:46:48.227Z,72.50
2019-02-20T23:48:51.903Z,73.80
2019-02-20T23:50:55.567Z,72.80
2019-02-20T23:52:59.246Z,72.70
2019-02-20T23:55:04.620Z,71.90
2019-02-20T23:57:08.290Z,71.90
2019-02-20T23:59:13.895Z,71.60
